Current Conditions
Cielo Sereno
Condizioni




Pressure
1020.92 (mb) - 30.15 (inHG)
Visibility

10.0 (km) - 6.2 (miles)
   Temperature
4  °C
39°F
-2  °C
Dewpoint
65  %
 Humidity
   Wind Speed
2  km/h
1  kts
1  mph
0.4  m/s
   Wind Direction
Calm
Due North
   Airport Data
LIRQ
Location Peretola 29.50 km (18.33 mi)
Metar :LIRQ 282120Z VRB01KT CAVOK 04/M02 Q1021
Fri 28th February 22:20 pm
   Raw Metar Info
Raw METAR is the most common format in the world for the transmission of observational weather data. It is highly standardized through the International Civil Aviation Organization (ICAO), which allows it to be understood throughout most of the world.
   API Info
Data Provided by
https://www.checkwx.com/weather/LIRQ
   © Info
CSS/SVG/PHP scripts were developed by weather34.com for use in the weather34 template © 2015-2020

Guide Info provided by Metar-Wikipedia